Time;durP1;ratioP1;P1;durP2;ratioP2;P2;SDS_P1;SDS_P2;PMS_P1;PMS_P2;Temp;Humidity;BMP_temperature;BMP_pressure;BME280_temperature;BME280_humidity;BME280_pressure;Samples;Min_cycle;Max_cycle;Signal;HPM_P1;HPM_P2
2021/06/11 00:03:07;;;;;;;8.50;7.03;;;;;;;-139.38;100.00;63230.50;5041810;28;20296;-72
2021/06/11 00:06:33;;;;;;;10.37;7.80;;;;;;;-139.38;100.00;63230.50;5046335;28;20209;-71
2021/06/11 00:09:58;;;;;;;11.53;7.87;;;;;;;-139.38;100.00;63230.50;5047311;28;20209;-72
2021/06/11 00:13:23;;;;;;;10.63;7.80;;;;;;;-139.38;100.00;63230.50;5049502;28;20317;-71
2021/06/11 00:16:49;;;;;;;11.03;7.80;;;;;;;-139.38;100.00;63230.50;5045457;28;20206;-72
2021/06/11 00:20:16;;;;;;;10.63;7.07;;;;;;;-139.38;100.00;63230.50;5048047;28;20213;-72
2021/06/11 00:23:41;;;;;;;9.90;7.80;;;;;;;-139.38;100.00;63230.50;5049045;28;20219;-72
2021/06/11 00:27:07;;;;;;;9.77;7.73;;;;;;;-139.38;100.00;63230.50;5047086;28;20205;-72
2021/06/11 00:30:32;;;;;;;12.30;7.40;;;;;;;-139.38;100.00;63230.50;5044474;28;20602;-73
2021/06/11 00:33:58;;;;;;;10.03;7.70;;;;;;;-139.38;100.00;63230.50;5044557;28;20229;-72
2021/06/11 00:37:25;;;;;;;11.00;7.90;;;;;;;-139.38;100.00;63230.50;5049592;28;20230;-72
2021/06/11 00:40:50;;;;;;;17.20;7.97;;;;;;;-139.38;100.00;63230.50;5045629;28;20205;-72
2021/06/11 00:44:15;;;;;;;11.13;7.90;;;;;;;-139.38;100.00;63230.50;5049697;28;20241;-72
2021/06/11 00:47:40;;;;;;;12.00;8.03;;;;;;;-139.38;100.00;63230.50;5041904;28;20207;-72
2021/06/11 00:51:06;;;;;;;12.43;8.73;;;;;;;-139.38;100.00;63230.50;5048580;28;20251;-73
2021/06/11 00:54:34;;;;;;;10.80;7.50;;;;;;;-139.38;100.00;63230.50;5042857;28;20218;-73
2021/06/11 00:57:59;;;;;;;9.60;8.03;;;;;;;-139.38;100.00;63230.50;5043167;28;20197;-73
2021/06/11 01:01:24;;;;;;;10.97;8.40;;;;;;;-139.38;100.00;63230.50;5048507;28;20248;-73
2021/06/11 01:04:50;;;;;;;9.80;8.53;;;;;;;-139.38;100.00;63230.50;5043341;28;20232;-73
2021/06/11 01:08:16;;;;;;;10.10;8.27;;;;;;;-139.38;100.00;63230.50;5047608;28;20209;-73
2021/06/11 01:11:43;;;;;;;10.87;8.47;;;;;;;-139.38;100.00;63230.50;5042428;28;20594;-73
2021/06/11 01:15:09;;;;;;;9.80;7.90;;;;;;;-139.38;100.00;63230.50;5049413;28;20202;-73
2021/06/11 01:18:34;;;;;;;13.13;8.57;;;;;;;-139.38;100.00;63230.50;5050126;28;20210;-71
2021/06/11 01:22:00;;;;;;;13.93;7.90;;;;;;;-139.38;100.00;63230.50;5046097;28;20233;-70
2021/06/11 01:25:28;;;;;;;11.47;8.50;;;;;;;-139.38;100.00;63230.50;5042693;28;20215;-71
2021/06/11 01:28:56;;;;;;;12.07;8.53;;;;;;;-139.38;100.00;63230.50;5042435;28;20210;-71
2021/06/11 01:32:21;;;;;;;10.63;8.33;;;;;;;-139.38;100.00;63230.50;5042384;28;20700;-72
2021/06/11 01:35:51;;;;;;;12.50;8.53;;;;;;;-139.38;100.00;63230.50;5042540;28;20205;-71
2021/06/11 01:39:18;;;;;;;12.93;8.63;;;;;;;-139.38;100.00;63230.50;5042092;28;20568;-72
2021/06/11 01:42:44;;;;;;;11.80;8.87;;;;;;;-139.38;100.00;63230.50;5041629;28;20329;-72
2021/06/11 01:46:12;;;;;;;12.43;9.37;;;;;;;-139.38;100.00;63230.50;5040934;28;20211;-71
2021/06/11 01:49:39;;;;;;;13.03;9.10;;;;;;;-139.38;100.00;63230.50;5041978;28;20220;-71
2021/06/11 01:53:06;;;;;;;13.83;9.47;;;;;;;-139.38;100.00;63230.50;5050437;28;20592;-71
2021/06/11 01:56:33;;;;;;;13.77;10.03;;;;;;;-139.38;100.00;63230.50;5044886;28;20197;-71
2021/06/11 01:59:58;;;;;;;12.90;9.67;;;;;;;-139.38;100.00;63230.50;5045108;28;20209;-71
2021/06/11 02:03:25;;;;;;;13.83;10.53;;;;;;;-139.38;100.00;63230.50;5043771;28;20286;-71
2021/06/11 02:06:51;;;;;;;12.13;9.37;;;;;;;-139.38;100.00;63230.50;5045674;28;20229;-72
2021/06/11 02:10:18;;;;;;;11.87;9.53;;;;;;;-139.38;100.00;63230.50;5044376;28;20578;-71
2021/06/11 02:13:45;;;;;;;10.97;8.47;;;;;;;-139.38;100.00;63230.50;5041073;28;20272;-71
2021/06/11 02:17:10;;;;;;;11.80;9.13;;;;;;;-139.38;100.00;63230.50;5046307;28;20209;-71
2021/06/11 02:20:38;;;;;;;12.13;9.00;;;;;;;-139.38;100.00;63230.50;5048104;28;20213;-71
2021/06/11 02:24:05;;;;;;;12.80;9.47;;;;;;;-139.38;100.00;63230.50;5044945;28;20230;-71
2021/06/11 02:27:32;;;;;;;12.33;9.50;;;;;;;-139.38;100.00;63230.50;5048989;28;20217;-71
2021/06/11 02:30:57;;;;;;;11.53;9.60;;;;;;;-139.38;100.00;63230.50;5044254;28;20198;-72
2021/06/11 02:34:23;;;;;;;13.77;9.90;;;;;;;-139.38;100.00;63230.50;5049729;28;20210;-71
2021/06/11 02:37:50;;;;;;;14.13;9.47;;;;;;;-139.38;100.00;63230.50;5052017;28;20204;-72
2021/06/11 02:41:18;;;;;;;15.00;10.03;;;;;;;-139.38;100.00;63230.50;5049347;28;20240;-71
2021/06/11 02:44:43;;;;;;;13.00;10.07;;;;;;;-139.38;100.00;63230.50;5045300;28;20658;-72
2021/06/11 02:48:14;;;;;;;12.47;9.87;;;;;;;-139.38;100.00;63230.50;5046175;28;20198;-71
2021/06/11 02:51:42;;;;;;;14.37;9.77;;;;;;;-139.38;100.00;63230.50;5048551;28;20256;-73
2021/06/11 02:55:10;;;;;;;14.83;10.43;;;;;;;-139.38;100.00;63230.50;5048082;28;20209;-72
2021/06/11 02:58:44;;;;;;;14.00;10.63;;;;;;;-139.38;100.00;63230.50;5047933;28;20213;-71
2021/06/11 03:02:10;;;;;;;13.60;9.87;;;;;;;-139.38;100.00;63230.50;5043506;28;20213;-70
2021/06/11 03:05:39;;;;;;;13.93;9.73;;;;;;;-139.38;100.00;63230.50;5047681;28;20299;-71
2021/06/11 03:09:10;;;;;;;14.70;10.30;;;;;;;-139.38;100.00;63230.50;5048074;28;20205;-72
2021/06/11 03:12:38;;;;;;;13.63;10.97;;;;;;;-139.38;100.00;63230.50;5047018;28;20263;-71
2021/06/11 03:16:04;;;;;;;13.60;9.80;;;;;;;-139.38;100.00;63230.50;5051369;28;20292;-72
2021/06/11 03:19:33;;;;;;;15.03;10.70;;;;;;;-139.38;100.00;63230.50;5051223;28;20208;-72
2021/06/11 03:23:02;;;;;;;16.03;10.77;;;;;;;-139.38;100.00;63230.50;5050838;28;20236;-72
2021/06/11 03:26:31;;;;;;;13.60;10.40;;;;;;;-139.38;100.00;63230.50;5045110;28;20216;-72
2021/06/11 03:30:01;;;;;;;14.53;10.43;;;;;;;-139.38;100.00;63230.50;5045316;28;20258;-72
2021/06/11 03:33:28;;;;;;;15.47;11.13;;;;;;;-139.38;100.00;63230.50;5051419;28;20225;-72
2021/06/11 03:36:55;;;;;;;14.37;11.00;;;;;;;-139.38;100.00;63230.50;5045893;28;20323;-72
2021/06/11 03:40:25;;;;;;;15.23;11.40;;;;;;;-139.38;100.00;63230.50;5047533;28;20544;-72
2021/06/11 03:43:51;;;;;;;13.87;10.60;;;;;;;-139.38;100.00;63230.50;5046626;28;20233;-71
2021/06/11 03:47:19;;;;;;;12.80;10.20;;;;;;;-139.38;100.00;63230.50;5049536;28;20217;-71
2021/06/11 03:50:48;;;;;;;14.40;10.50;;;;;;;-139.38;100.00;63230.50;5051104;28;20209;-71
2021/06/11 03:54:15;;;;;;;13.70;10.43;;;;;;;-139.38;100.00;63230.50;5043490;28;20264;-72
2021/06/11 03:57:42;;;;;;;13.13;10.27;;;;;;;-139.38;100.00;63230.50;5049009;28;20583;-72
2021/06/11 04:01:09;;;;;;;13.30;10.37;;;;;;;-139.38;100.00;63230.50;5051351;28;20202;-72
2021/06/11 04:04:38;;;;;;;11.87;9.70;;;;;;;-139.38;100.00;63230.50;5045128;28;20225;-72
2021/06/11 04:08:06;;;;;;;17.07;10.57;;;;;;;-139.38;100.00;63230.50;5047380;28;20572;-71
2021/06/11 04:11:37;;;;;;;13.87;10.30;;;;;;;-139.38;100.00;63230.50;5051375;28;20251;-72
2021/06/11 04:15:03;;;;;;;15.07;10.77;;;;;;;-139.38;100.00;63230.50;5046912;28;20240;-73
2021/06/11 04:18:31;;;;;;;12.97;10.70;;;;;;;-139.38;100.00;63230.50;5049800;28;20216;-72
2021/06/11 04:21:58;;;;;;;14.30;11.67;;;;;;;-139.38;100.00;63230.50;5045895;28;20665;-72
2021/06/11 04:25:27;;;;;;;15.33;11.37;;;;;;;-139.38;100.00;63230.50;5048695;28;20198;-72
2021/06/11 04:28:53;;;;;;;13.27;10.60;;;;;;;-139.38;100.00;63230.50;5052573;28;20198;-72
2021/06/11 04:32:18;;;;;;;12.20;9.80;;;;;;;-139.38;100.00;63230.50;5043121;28;20288;-72
2021/06/11 04:35:44;;;;;;;14.67;10.83;;;;;;;-139.38;100.00;63230.50;5044765;28;20259;-71
2021/06/11 04:39:13;;;;;;;12.90;10.37;;;;;;;-139.38;100.00;63230.50;5050483;28;20678;-72
2021/06/11 04:42:38;;;;;;;13.50;10.27;;;;;;;-139.38;100.00;63230.50;5044708;28;20233;-72
2021/06/11 04:46:04;;;;;;;15.43;11.17;;;;;;;-139.38;100.00;63230.50;5043599;28;20267;-74
2021/06/11 04:49:30;;;;;;;14.40;9.87;;;;;;;-139.38;100.00;63230.50;5042342;28;20715;-72
2021/06/11 04:52:55;;;;;;;13.90;10.93;;;;;;;-139.38;100.00;63230.50;5049832;28;20599;-73
2021/06/11 04:56:22;;;;;;;13.27;9.73;;;;;;;-139.38;100.00;63230.50;5047576;28;20234;-71
2021/06/11 04:59:47;;;;;;;13.07;9.73;;;;;;;-139.38;100.00;63230.50;5046771;28;20211;-72
2021/06/11 05:03:13;;;;;;;17.33;10.20;;;;;;;-139.38;100.00;63230.50;5049891;28;20226;-72
2021/06/11 05:06:38;;;;;;;11.53;9.70;;;;;;;-139.38;100.00;63230.50;5046322;28;20253;-73
2021/06/11 05:10:04;;;;;;;11.83;9.57;;;;;;;-139.38;100.00;63230.50;5047361;28;20208;-74
2021/06/11 05:13:31;;;;;;;12.70;9.47;;;;;;;-139.38;100.00;63230.50;5041458;28;20223;-75
2021/06/11 05:16:56;;;;;;;12.37;9.27;;;;;;;-139.38;100.00;63230.50;5041206;28;20209;-74
2021/06/11 05:20:21;;;;;;;10.73;8.90;;;;;;;-139.38;100.00;63230.50;5048626;28;20217;-73
2021/06/11 05:23:46;;;;;;;12.70;9.67;;;;;;;-139.38;100.00;63230.50;5049884;28;20224;-73
2021/06/11 05:27:12;;;;;;;11.80;8.80;;;;;;;-139.38;100.00;63230.50;5039442;28;20208;-75
2021/06/11 05:30:38;;;;;;;12.23;8.47;;;;;;;-139.38;100.00;63230.50;5049807;28;20211;-73
2021/06/11 05:34:03;;;;;;;14.27;8.60;;;;;;;-139.38;100.00;63230.50;5045889;28;20638;-79
2021/06/11 05:37:29;;;;;;;11.30;9.13;;;;;;;-139.38;100.00;63230.50;5047994;28;20205;-73
2021/06/11 05:40:55;;;;;;;11.17;8.60;;;;;;;-139.38;100.00;63230.50;5048148;28;20205;-76
2021/06/11 05:44:20;;;;;;;11.73;9.03;;;;;;;-139.38;100.00;63230.50;5050901;28;20261;-75
2021/06/11 05:47:47;;;;;;;12.37;8.40;;;;;;;-139.38;100.00;63230.50;5049711;28;20208;-72
2021/06/11 05:51:12;;;;;;;10.50;8.90;;;;;;;-139.38;100.00;63230.50;5049590;28;20233;-72
2021/06/11 05:54:37;;;;;;;10.27;8.20;;;;;;;-139.38;100.00;63230.50;5047005;28;20658;-72
2021/06/11 05:58:03;;;;;;;11.23;8.37;;;;;;;-139.38;100.00;63230.50;5047624;28;20202;-75
2021/06/11 06:01:28;;;;;;;10.40;8.97;;;;;;;-139.38;100.00;63230.50;5046232;28;20204;-73
2021/06/11 06:04:55;;;;;;;10.40;8.37;;;;;;;-139.38;100.00;63230.50;5044019;28;20229;-74
2021/06/11 06:08:20;;;;;;;14.43;8.50;;;;;;;-139.38;100.00;63230.50;5054172;28;20216;-73
2021/06/11 06:11:46;;;;;;;15.57;9.13;;;;;;;-139.38;100.00;63230.50;5054720;28;20206;-75
2021/06/11 06:15:11;;;;;;;16.97;9.17;;;;;;;-139.38;100.00;63230.50;5050497;28;20214;-79
2021/06/11 06:18:36;;;;;;;13.43;8.70;;;;;;;-139.38;100.00;63230.50;5052000;28;20213;-73
2021/06/11 06:22:04;;;;;;;9.27;8.20;;;;;;;-139.38;100.00;63230.50;5050182;28;20575;-78
2021/06/11 06:25:29;;;;;;;12.17;8.30;;;;;;;-139.38;100.00;63230.50;5053132;28;20301;-76
2021/06/11 06:28:54;;;;;;;9.43;7.67;;;;;;;-139.38;100.00;63230.50;5056804;28;20232;-74
2021/06/11 06:32:20;;;;;;;8.83;7.77;;;;;;;-139.38;100.00;63230.50;5065324;28;20293;-74
2021/06/11 06:35:45;;;;;;;9.57;7.77;;;;;;;-139.38;100.00;63230.50;5057797;28;20208;-73
2021/06/11 06:39:12;;;;;;;11.57;7.87;;;;;;;-139.38;100.00;63230.50;5057801;28;20202;-75
2021/06/11 06:42:37;;;;;;;10.00;7.97;;;;;;;-139.38;100.00;63230.50;5048876;28;20237;-74
2021/06/11 06:46:05;;;;;;;10.63;7.63;;;;;;;-139.38;100.00;63230.50;5048249;28;20228;-74
2021/06/11 06:49:32;;;;;;;13.33;7.70;;;;;;;-139.38;100.00;63230.50;5051328;28;20221;-78
2021/06/11 06:53:03;;;;;;;8.57;7.67;;;;;;;-139.38;100.00;63230.50;5049908;28;20226;-75
2021/06/11 06:56:30;;;;;;;10.50;7.70;;;;;;;-139.38;100.00;63230.50;5052162;28;20217;-73
2021/06/11 06:59:55;;;;;;;9.63;7.20;;;;;;;-139.38;100.00;63230.50;5051050;28;20271;-73
2021/06/11 07:03:20;;;;;;;10.30;7.57;;;;;;;-139.38;100.00;63230.50;5051483;28;20255;-74
2021/06/11 07:06:49;;;;;;;11.40;7.63;;;;;;;-139.38;100.00;63230.50;5047434;28;20205;-75
2021/06/11 07:10:14;;;;;;;9.40;7.97;;;;;;;-139.38;100.00;63230.50;5053384;28;20698;-75
2021/06/11 07:13:41;;;;;;;11.17;8.77;;;;;;;-139.38;100.00;63230.50;5053530;28;20581;-75
2021/06/11 07:17:06;;;;;;;9.27;7.00;;;;;;;-139.38;100.00;63230.50;5050139;28;20199;-73
2021/06/11 07:20:32;;;;;;;9.57;7.53;;;;;;;-139.38;100.00;63230.50;5052497;28;20217;-74
2021/06/11 07:23:57;;;;;;;10.60;7.50;;;;;;;-139.38;100.00;63230.50;5047938;28;20224;-72
2021/06/11 07:27:22;;;;;;;10.93;7.40;;;;;;;-139.38;100.00;63230.50;5051696;28;20699;-74
2021/06/11 07:30:49;;;;;;;10.23;7.27;;;;;;;-139.38;100.00;63230.50;5052129;28;20202;-75
2021/06/11 07:34:14;;;;;;;9.23;7.80;;;;;;;-139.38;100.00;63230.50;5045258;28;20231;-73
2021/06/11 07:37:39;;;;;;;11.17;7.93;;;;;;;-139.38;100.00;63230.50;5050720;28;20209;-72
2021/06/11 07:41:05;;;;;;;9.87;7.27;;;;;;;-139.38;100.00;63230.50;5050269;28;20215;-74
2021/06/11 07:44:30;;;;;;;14.23;8.10;;;;;;;-139.38;100.00;63230.50;5049462;28;20280;-74
2021/06/11 07:47:57;;;;;;;11.73;7.77;;;;;;;-139.38;100.00;63230.50;5047212;28;20216;-75
2021/06/11 07:51:22;;;;;;;9.13;7.10;;;;;;;-139.38;100.00;63230.50;5047542;28;20257;-75
2021/06/11 07:54:48;;;;;;;10.00;7.70;;;;;;;-139.38;100.00;63230.50;5048903;28;20286;-74
2021/06/11 07:58:13;;;;;;;12.83;7.50;;;;;;;-139.38;100.00;63230.50;5042047;28;20587;-75
2021/06/11 08:01:38;;;;;;;9.83;7.13;;;;;;;-139.38;100.00;63230.50;5047525;28;20211;-74
2021/06/11 08:05:06;;;;;;;8.57;6.83;;;;;;;-139.38;100.00;63230.50;5045512;28;20224;-75
2021/06/11 08:08:31;;;;;;;8.38;5.97;;;;;;;-139.38;100.00;63230.50;5046324;28;20263;-75
2021/06/11 08:11:56;;;;;;;8.35;6.50;;;;;;;-139.38;100.00;63230.50;5050461;28;20777;-74
2021/06/11 08:15:22;;;;;;;9.90;7.10;;;;;;;-139.38;100.00;63230.50;5044735;28;20206;-75
2021/06/11 08:18:47;;;;;;;11.50;7.53;;;;;;;-139.38;100.00;63230.50;5042806;28;20694;-75
2021/06/11 08:22:14;;;;;;;10.17;6.87;;;;;;;-139.38;100.00;63230.50;5046253;28;20251;-76
2021/06/11 08:25:39;;;;;;;8.40;6.93;;;;;;;-139.38;100.00;63230.50;5039728;28;20284;-76
2021/06/11 08:29:04;;;;;;;7.20;5.95;;;;;;;-139.38;100.00;63230.50;5041139;28;20212;-75
2021/06/11 08:32:30;;;;;;;9.65;7.07;;;;;;;-139.38;100.00;63230.50;5045050;28;20230;-75
2021/06/11 08:35:55;;;;;;;8.02;6.43;;;;;;;-139.38;100.00;63230.50;5043047;28;20198;-75
2021/06/11 08:39:22;;;;;;;8.07;6.28;;;;;;;-139.38;100.00;63230.50;5047956;28;20213;-75
2021/06/11 08:42:48;;;;;;;6.85;5.82;;;;;;;-139.38;100.00;63230.50;5048697;28;20237;-75
2021/06/11 08:46:14;;;;;;;8.82;6.55;;;;;;;-139.38;100.00;63230.50;5042333;28;20231;-75
2021/06/11 08:49:40;;;;;;;8.05;6.72;;;;;;;-139.38;100.00;63230.50;5043385;28;20209;-76
2021/06/11 08:53:06;;;;;;;7.65;6.85;;;;;;;-139.38;100.00;63230.50;5046269;28;20241;-76
2021/06/11 08:56:34;;;;;;;9.05;6.82;;;;;;;-139.38;100.00;63230.50;5050663;28;20213;-75
2021/06/11 08:59:59;;;;;;;8.23;6.68;;;;;;;-139.38;100.00;63230.50;5050022;28;20205;-75
2021/06/11 09:03:26;;;;;;;9.30;6.45;;;;;;;-139.38;100.00;63230.50;5046130;28;20745;-75
2021/06/11 09:07:08;;;;;;;7.63;6.82;;;;;;;-139.38;100.00;63230.50;5043521;28;20234;-76
2021/06/11 09:10:48;;;;;;;10.93;6.88;;;;;;;-139.38;100.00;63230.50;5044458;28;20206;-74
2021/06/11 09:14:26;;;;;;;8.85;7.38;;;;;;;-139.38;100.00;63230.50;5051252;28;20232;-77
2021/06/11 09:17:53;;;;;;;9.00;6.65;;;;;;;-139.38;100.00;63230.50;5042368;28;20228;-75
2021/06/11 09:21:26;;;;;;;10.30;6.75;;;;;;;-139.38;100.00;63230.50;5048664;28;20279;-75
2021/06/11 09:25:03;;;;;;;8.43;6.90;;;;;;;-139.38;100.00;63230.50;5048313;28;20599;-77
2021/06/11 09:28:30;;;;;;;9.52;6.65;;;;;;;-139.38;100.00;63230.50;5049768;28;20223;-75
2021/06/11 09:31:57;;;;;;;9.63;7.50;;;;;;;-139.38;100.00;63230.50;5065526;28;20233;-74
2021/06/11 09:35:27;;;;;;;12.75;7.18;;;;;;;-139.38;100.00;63230.50;5067270;28;20186;-75
2021/06/11 09:39:04;;;;;;;8.38;6.57;;;;;;;-139.38;100.00;63230.50;5047265;28;20640;-74
2021/06/11 09:42:32;;;;;;;8.18;6.82;;;;;;;-139.38;100.00;63230.50;5057385;28;20259;-76
2021/06/11 09:46:01;;;;;;;10.43;6.57;;;;;;;-139.38;100.00;63230.50;5052487;28;20663;-75
2021/06/11 09:49:28;;;;;;;9.88;6.90;;;;;;;-139.38;100.00;63230.50;5053801;28;20785;-74
2021/06/11 09:53:04;;;;;;;10.05;7.72;;;;;;;-139.38;100.00;63230.50;5055130;28;20717;-73
2021/06/11 09:56:33;;;;;;;9.00;6.97;;;;;;;-139.38;100.00;63230.50;5058777;28;20230;-75
2021/06/11 10:00:00;;;;;;;7.50;6.72;;;;;;;-139.38;100.00;63230.50;5058187;28;20220;-73
2021/06/11 10:03:29;;;;;;;7.78;6.97;;;;;;;-139.38;100.00;63230.50;5058196;28;20225;-79
2021/06/11 10:06:55;;;;;;;8.00;7.20;;;;;;;-139.38;100.00;63230.50;5056465;28;21038;-74
2021/06/11 10:10:20;;;;;;;8.73;6.63;;;;;;;-139.38;100.00;63230.50;5050587;28;20207;-79
2021/06/11 10:13:46;;;;;;;9.23;7.80;;;;;;;-139.38;100.00;63230.50;5054386;28;20225;-82
2021/06/11 10:17:14;;;;;;;8.55;7.28;;;;;;;-139.38;100.00;63230.50;5053886;28;20209;-81
2021/06/11 10:20:39;;;;;;;8.35;6.25;;;;;;;-139.38;100.00;63230.50;5052421;28;20218;-78
2021/06/11 10:24:06;;;;;;;6.55;5.60;;;;;;;-139.38;100.00;63230.50;5055448;28;20231;-78
2021/06/11 10:27:31;;;;;;;9.70;6.95;;;;;;;-139.38;100.00;63230.50;5053080;28;20221;-78
2021/06/11 10:30:57;;;;;;;9.30;6.22;;;;;;;-139.38;100.00;63230.50;5049951;28;20206;-79
2021/06/11 10:34:52;;;;;;;9.50;7.22;;;;;;;-139.38;100.00;63230.50;5053922;28;20202;-78
2021/06/11 10:38:32;;;;;;;8.35;6.72;;;;;;;-139.38;100.00;63230.50;5053461;28;20202;-79
2021/06/11 10:42:03;;;;;;;8.77;6.53;;;;;;;-139.38;100.00;63230.50;5053061;28;20210;-78
2021/06/11 10:45:42;;;;;;;7.20;6.47;;;;;;;-139.38;100.00;63230.50;5053533;28;20241;-80
2021/06/11 10:49:08;;;;;;;8.73;6.97;;;;;;;-139.38;100.00;63230.50;5051167;28;20658;-78
2021/06/11 10:52:36;;;;;;;7.97;7.18;;;;;;;-139.38;100.00;63230.50;5052882;28;20243;-82
2021/06/11 10:56:18;;;;;;;10.68;8.52;;;;;;;-139.38;100.00;63230.50;5051603;28;20197;-78
2021/06/11 10:59:45;;;;;;;9.48;8.13;;;;;;;-139.38;100.00;63230.50;5052779;28;20191;-78
2021/06/11 11:03:23;;;;;;;8.73;6.97;;;;;;;-139.38;100.00;63230.50;5050697;28;20221;-76
2021/06/11 11:06:50;;;;;;;7.93;6.93;;;;;;;-139.38;100.00;63230.50;5050418;28;20219;-75
2021/06/11 11:10:16;;;;;;;9.05;7.30;;;;;;;-139.38;100.00;63230.50;5052393;28;20614;-76
2021/06/11 11:13:56;;;;;;;8.88;7.95;;;;;;;-139.38;100.00;63230.50;5050548;28;20229;-77
2021/06/11 11:17:24;;;;;;;8.02;7.22;;;;;;;-139.38;100.00;63230.50;5049660;28;21137;-77
2021/06/11 11:20:51;;;;;;;10.30;8.45;;;;;;;-139.38;100.00;63230.50;5051226;28;20202;-74
2021/06/11 11:24:19;;;;;;;8.25;7.20;;;;;;;-139.38;100.00;63230.50;5050243;28;20233;-76
2021/06/11 11:27:47;;;;;;;8.40;7.50;;;;;;;-139.38;100.00;63230.50;5045027;28;20232;-75
2021/06/11 11:31:12;;;;;;;10.45;7.60;;;;;;;-139.38;100.00;63230.50;5049393;28;20270;-77
2021/06/11 11:34:38;;;;;;;8.35;6.80;;;;;;;-139.38;100.00;63230.50;5048824;28;20213;-75
2021/06/11 11:38:04;;;;;;;8.98;6.53;;;;;;;-139.38;100.00;63230.50;5049419;28;20201;-76
2021/06/11 11:41:31;;;;;;;5.85;5.30;;;;;;;-139.38;100.00;63230.50;5050190;28;20201;-75
2021/06/11 11:44:56;;;;;;;7.20;6.13;;;;;;;-139.38;100.00;63230.50;5046511;28;20210;-76
2021/06/11 11:48:24;;;;;;;6.35;5.75;;;;;;;-139.38;100.00;63230.50;5049417;28;20249;-79
2021/06/11 11:51:49;;;;;;;7.95;6.03;;;;;;;-139.38;100.00;63230.50;5051383;28;20205;-75
2021/06/11 11:55:16;;;;;;;7.70;6.15;;;;;;;-139.38;100.00;63230.50;5051485;28;20202;-76
2021/06/11 11:58:43;;;;;;;6.53;5.78;;;;;;;-139.38;100.00;63230.50;5050732;28;20297;-76
2021/06/11 12:02:09;;;;;;;6.38;5.78;;;;;;;-139.38;100.00;63230.50;5052207;28;20211;-77
2021/06/11 12:05:34;;;;;;;5.50;4.53;;;;;;;-139.38;100.00;63230.50;5045180;28;20670;-76
2021/06/11 12:08:59;;;;;;;5.80;5.20;;;;;;;-139.38;100.00;63230.50;5049342;28;20880;-78
2021/06/11 12:12:25;;;;;;;6.68;4.78;;;;;;;-139.38;100.00;63230.50;5049695;28;20227;-76
2021/06/11 12:15:52;;;;;;;8.98;5.82;;;;;;;-139.38;100.00;63230.50;5045837;28;20317;-77
2021/06/11 12:19:17;;;;;;;9.77;6.00;;;;;;;-139.38;100.00;63230.50;5049229;28;20211;-75
2021/06/11 12:22:42;;;;;;;5.78;4.88;;;;;;;-139.38;100.00;63230.50;5042426;28;20698;-77
2021/06/11 12:26:08;;;;;;;5.28;3.95;;;;;;;-139.38;100.00;63230.50;5051063;28;20206;-77
2021/06/11 12:29:33;;;;;;;5.68;4.93;;;;;;;-139.38;100.00;63230.50;5047868;28;20904;-78
2021/06/11 12:33:00;;;;;;;5.30;4.65;;;;;;;-139.38;100.00;63230.50;5050134;28;20315;-77
2021/06/11 12:36:26;;;;;;;5.68;5.07;;;;;;;-139.38;100.00;63230.50;5060334;28;20206;-78
2021/06/11 12:39:53;;;;;;;7.25;5.30;;;;;;;-139.38;100.00;63230.50;5059836;28;20247;-76
2021/06/11 12:43:26;;;;;;;5.53;5.03;;;;;;;-139.38;100.00;63230.50;5048266;28;20717;-76
2021/06/11 12:46:53;;;;;;;6.32;4.90;;;;;;;-139.38;100.00;63230.50;5046150;28;20243;-79
2021/06/11 12:50:20;;;;;;;5.80;4.30;;;;;;;-139.38;100.00;63230.50;5046654;28;20216;-75
2021/06/11 12:53:46;;;;;;;5.88;4.10;;;;;;;-139.38;100.00;63230.50;5046900;28;20239;-74
2021/06/11 12:57:13;;;;;;;4.72;4.30;;;;;;;-139.38;100.00;63230.50;5047312;28;20209;-77
2021/06/11 13:00:38;;;;;;;4.72;4.28;;;;;;;-139.38;100.00;63230.50;5045105;28;20209;-77
2021/06/11 13:04:04;;;;;;;4.50;4.10;;;;;;;-139.38;100.00;63230.50;5046748;28;20242;-76
2021/06/11 13:07:31;;;;;;;8.30;4.15;;;;;;;-139.38;100.00;63230.50;5049101;28;20229;-76
2021/06/11 13:10:56;;;;;;;3.78;3.42;;;;;;;-139.38;100.00;63230.50;5051716;28;20638;-76
2021/06/11 13:14:22;;;;;;;3.70;3.40;;;;;;;-139.38;100.00;63230.50;5049834;28;20315;-73
2021/06/11 13:17:47;;;;;;;4.43;3.20;;;;;;;-139.38;100.00;63230.50;5047544;28;20293;-78
2021/06/11 13:21:13;;;;;;;4.72;3.53;;;;;;;-139.38;100.00;63230.50;5041975;28;20219;-79
2021/06/11 13:24:40;;;;;;;4.15;3.42;;;;;;;-139.38;100.00;63230.50;5046478;28;20214;-78
2021/06/11 13:28:06;;;;;;;4.25;3.85;;;;;;;-139.38;100.00;63230.50;5050254;28;20309;-78
2021/06/11 13:31:31;;;;;;;3.20;2.90;;;;;;;-139.38;100.00;63230.50;5050222;28;20320;-77
2021/06/11 13:34:57;;;;;;;3.97;3.55;;;;;;;-139.38;100.00;63230.50;5047381;28;20231;-73
2021/06/11 13:38:22;;;;;;;3.40;2.83;;;;;;;-139.38;100.00;63230.50;5049295;28;20201;-75
2021/06/11 13:41:49;;;;;;;3.92;3.20;;;;;;;-139.38;100.00;63230.50;5049488;28;20213;-75
2021/06/11 13:45:15;;;;;;;5.82;3.35;;;;;;;-139.38;100.00;63230.50;5049145;28;20209;-74
2021/06/11 13:48:40;;;;;;;5.30;3.20;;;;;;;-139.38;100.00;63230.50;5049158;28;20875;-75
2021/06/11 13:52:06;;;;;;;3.30;3.00;;;;;;;-139.38;100.00;63230.50;5050439;28;20208;-73
2021/06/11 13:55:31;;;;;;;3.92;3.53;;;;;;;-139.38;100.00;63230.50;5047933;28;20218;-74
2021/06/11 13:58:58;;;;;;;6.18;3.35;;;;;;;-139.38;100.00;63230.50;5051267;28;20205;-74
2021/06/11 14:02:23;;;;;;;4.15;3.25;;;;;;;-139.38;100.00;63230.50;5047604;28;20218;-74
2021/06/11 14:05:48;;;;;;;3.38;3.08;;;;;;;-139.38;100.00;63230.50;5055491;28;20209;-73
2021/06/11 14:09:14;;;;;;;2.97;2.75;;;;;;;-139.38;100.00;63230.50;5054914;28;20324;-77
2021/06/11 14:12:40;;;;;;;4.93;3.20;;;;;;;-139.38;100.00;63230.50;5049098;28;20303;-74
2021/06/11 14:16:08;;;;;;;4.40;3.53;;;;;;;-139.38;100.00;63230.50;5053383;28;20209;-74
2021/06/11 14:19:33;;;;;;;4.22;2.83;;;;;;;-139.38;100.00;63230.50;5053813;28;20245;-75
2021/06/11 14:22:58;;;;;;;3.53;3.15;;;;;;;-139.38;100.00;63230.50;5052303;28;20241;-74
2021/06/11 14:26:24;;;;;;;3.88;3.47;;;;;;;-139.38;100.00;63230.50;5046833;28;20211;-73
2021/06/11 14:29:49;;;;;;;3.53;3.13;;;;;;;-139.38;100.00;63230.50;5051400;28;20221;-73
2021/06/11 14:33:16;;;;;;;5.43;3.55;;;;;;;-139.38;100.00;63230.50;5053955;28;20222;-73
2021/06/11 14:36:41;;;;;;;5.65;4.32;;;;;;;-139.38;100.00;63230.50;5053070;28;20748;-73
2021/06/11 14:40:07;;;;;;;4.00;3.70;;;;;;;-139.38;100.00;63230.50;5049968;28;20202;-73
2021/06/11 14:43:33;;;;;;;6.90;4.13;;;;;;;-139.38;100.00;63230.50;5053532;28;20750;-74
2021/06/11 14:46:59;;;;;;;4.85;4.28;;;;;;;-139.38;100.00;63230.50;5052054;28;20217;-75
2021/06/11 14:50:26;;;;;;;4.63;4.22;;;;;;;-139.38;100.00;63230.50;5050490;28;20616;-75
2021/06/11 14:53:52;;;;;;;4.65;4.25;;;;;;;-139.38;100.00;63230.50;5052708;28;20229;-74
2021/06/11 14:57:18;;;;;;;7.60;4.13;;;;;;;-139.38;100.00;63230.50;5051545;28;20206;-73
2021/06/11 15:00:43;;;;;;;4.35;3.60;;;;;;;-139.38;100.00;63230.50;5052246;28;20577;-74
2021/06/11 15:04:08;;;;;;;6.22;4.35;;;;;;;-139.38;100.00;63230.50;5046058;28;20230;-76
2021/06/11 15:07:35;;;;;;;8.60;4.72;;;;;;;-139.38;100.00;63230.50;5051706;28;20305;-75
2021/06/11 15:11:01;;;;;;;5.60;4.57;;;;;;;-139.38;100.00;63230.50;5045258;28;20210;-73
2021/06/11 15:14:26;;;;;;;5.57;4.32;;;;;;;-139.38;100.00;63230.50;5048834;28;20206;-75
2021/06/11 15:17:52;;;;;;;6.18;4.15;;;;;;;-139.38;100.00;63230.50;5050812;28;20228;-75
2021/06/11 15:21:17;;;;;;;5.13;4.60;;;;;;;-139.38;100.00;63230.50;5047439;28;20677;-76
2021/06/11 15:24:44;;;;;;;5.38;4.75;;;;;;;-139.38;100.00;63230.50;5050590;28;20202;-73
2021/06/11 15:28:12;;;;;;;5.22;4.70;;;;;;;-139.38;100.00;63230.50;5048216;28;20233;-76
2021/06/11 15:31:48;;;;;;;5.03;4.50;;;;;;;-139.38;100.00;63230.50;5051070;28;20201;-79
2021/06/11 15:35:18;;;;;;;6.95;4.82;;;;;;;-139.38;100.00;63230.50;5050255;28;20217;-76